Asbury, Missouri
Current Conditions -  °F | °C
As of 12:53 PM on Saturday 25 Oct 2014 (Local Time) from KJLN Reporting Station
Clear Clear  
Wind Chill: 25°   Ceiling: Unl
Heat Index: 26°   Visibility: 10mi
Dew Point: 18°   Wind: 5mph
Humidity: 64%   Direction: 240°WSW
Pressure: 30.07"   Gusts: NA
Location:  37.27°N, 94.61°W
Report Text: KJLN 251753Z 24004KT 10SM CLR 25/18 A3007 RMK AO2 SLP175 T02500178 10256 20161 58013
Loading
Personal Weather Stations






























Interactive Weather Map
Tropical Storm Tracking
New forecast layout! Learn more

10-Day Weather Forecast

Advertisements
Track Severe Weather on mobile